sensor_id;sensor_type;location;lat;lon;timestamp;P1;durP1;ratioP1;P2;durP2;ratioP2
72209;SDS011;60113;48.762;12.302;2022-09-12T19:55:01;17.45;;;9.57;;
72209;SDS011;60113;48.762;12.302;2022-09-12T19:57:26;20.65;;;9.55;;
72209;SDS011;60113;48.762;12.302;2022-09-12T19:59:52;12.15;;;8.77;;
72209;SDS011;60113;48.762;12.302;2022-09-12T20:02:18;16.95;;;9.45;;
72209;SDS011;60113;48.762;12.302;2022-09-12T20:04:43;16.80;;;10.18;;
72209;SDS011;60113;48.762;12.302;2022-09-12T20:07:09;18.35;;;9.98;;
72209;SDS011;60113;48.762;12.302;2022-09-12T20:09:34;14.50;;;10.27;;
72209;SDS011;60113;48.762;12.302;2022-09-12T20:12:00;16.13;;;10.98;;
72209;SDS011;60113;48.762;12.302;2022-09-12T20:14:26;15.82;;;10.68;;
72209;SDS011;60113;48.762;12.302;2022-09-12T20:16:52;15.75;;;10.75;;
72209;SDS011;60113;48.762;12.302;2022-09-12T20:19:19;19.55;;;11.10;;
72209;SDS011;60113;48.762;12.302;2022-09-12T20:21:44;21.38;;;13.25;;
72209;SDS011;60113;48.762;12.302;2022-09-12T20:24:11;30.27;;;15.15;;
72209;SDS011;60113;48.762;12.302;2022-09-12T20:26:40;26.63;;;14.75;;
72209;SDS011;60113;48.762;12.302;2022-09-12T20:29:07;22.48;;;14.50;;
72209;SDS011;60113;48.762;12.302;2022-09-12T20:31:33;28.25;;;14.82;;
72209;SDS011;60113;48.762;12.302;2022-09-12T20:34:00;28.63;;;14.43;;
72209;SDS011;60113;48.762;12.302;2022-09-12T20:36:26;34.47;;;14.60;;
72209;SDS011;60113;48.762;12.302;2022-09-12T20:38:53;22.05;;;13.50;;
72209;SDS011;60113;48.762;12.302;2022-09-12T20:41:20;30.15;;;14.68;;
72209;SDS011;60113;48.762;12.302;2022-09-12T20:43:52;20.20;;;13.50;;
72209;SDS011;60113;48.762;12.302;2022-09-12T20:46:20;29.52;;;14.55;;
72209;SDS011;60113;48.762;12.302;2022-09-12T20:48:46;31.90;;;16.25;;
72209;SDS011;60113;48.762;12.302;2022-09-12T20:51:12;28.00;;;16.35;;
72209;SDS011;60113;48.762;12.302;2022-09-12T20:53:38;28.25;;;15.43;;
72209;SDS011;60113;48.762;12.302;2022-09-12T20:56:04;41.78;;;18.42;;
72209;SDS011;60113;48.762;12.302;2022-09-12T20:58:31;38.22;;;19.88;;
72209;SDS011;60113;48.762;12.302;2022-09-12T21:00:57;31.35;;;17.00;;
72209;SDS011;60113;48.762;12.302;2022-09-12T21:03:24;28.83;;;16.05;;
72209;SDS011;60113;48.762;12.302;2022-09-12T21:05:50;32.20;;;15.90;;
72209;SDS011;60113;48.762;12.302;2022-09-12T21:08:15;35.33;;;18.58;;
72209;SDS011;60113;48.762;12.302;2022-09-12T21:10:41;38.42;;;21.35;;
72209;SDS011;60113;48.762;12.302;2022-09-12T21:13:08;55.22;;;26.50;;
72209;SDS011;60113;48.762;12.302;2022-09-12T21:15:35;36.47;;;17.92;;
72209;SDS011;60113;48.762;12.302;2022-09-12T21:18:02;29.30;;;14.07;;
72209;SDS011;60113;48.762;12.302;2022-09-12T21:20:27;30.27;;;15.65;;
72209;SDS011;60113;48.762;12.302;2022-09-12T21:22:53;32.75;;;16.60;;
72209;SDS011;60113;48.762;12.302;2022-09-12T21:25:19;37.72;;;18.02;;
72209;SDS011;60113;48.762;12.302;2022-09-12T21:27:45;36.25;;;18.20;;
72209;SDS011;60113;48.762;12.302;2022-09-12T21:30:10;46.50;;;18.45;;
72209;SDS011;60113;48.762;12.302;2022-09-12T21:32:36;39.70;;;18.75;;
72209;SDS011;60113;48.762;12.302;2022-09-12T21:35:03;47.30;;;23.45;;
72209;SDS011;60113;48.762;12.302;2022-09-12T21:37:29;44.50;;;22.60;;
72209;SDS011;60113;48.762;12.302;2022-09-12T21:39:55;37.25;;;19.88;;
72209;SDS011;60113;48.762;12.302;2022-09-12T21:42:22;34.63;;;17.52;;
72209;SDS011;60113;48.762;12.302;2022-09-12T21:44:48;30.10;;;17.13;;
72209;SDS011;60113;48.762;12.302;2022-09-12T21:47:14;43.45;;;17.55;;
72209;SDS011;60113;48.762;12.302;2022-09-12T21:49:39;28.50;;;14.52;;
72209;SDS011;60113;48.762;12.302;2022-09-12T21:52:05;29.45;;;13.07;;
72209;SDS011;60113;48.762;12.302;2022-09-12T21:54:31;28.90;;;13.23;;
72209;SDS011;60113;48.762;12.302;2022-09-12T21:56:59;33.05;;;15.27;;
72209;SDS011;60113;48.762;12.302;2022-09-12T21:59:25;39.17;;;16.77;;
72209;SDS011;60113;48.762;12.302;2022-09-12T22:01:50;48.95;;;19.23;;
72209;SDS011;60113;48.762;12.302;2022-09-12T22:04:16;44.45;;;18.52;;
72209;SDS011;60113;48.762;12.302;2022-09-12T22:06:42;50.58;;;21.33;;
72209;SDS011;60113;48.762;12.302;2022-09-12T22:09:07;55.35;;;22.88;;
72209;SDS011;60113;48.762;12.302;2022-09-12T22:11:33;50.25;;;19.70;;
72209;SDS011;60113;48.762;12.302;2022-09-12T22:13:59;38.25;;;17.27;;
72209;SDS011;60113;48.762;12.302;2022-09-12T22:16:25;38.22;;;17.40;;
72209;SDS011;60113;48.762;12.302;2022-09-12T22:18:50;42.08;;;18.08;;
72209;SDS011;60113;48.762;12.302;2022-09-12T22:21:17;36.92;;;17.15;;
72209;SDS011;60113;48.762;12.302;2022-09-12T22:23:46;32.85;;;16.58;;
72209;SDS011;60113;48.762;12.302;2022-09-12T22:26:30;27.98;;;15.65;;
72209;SDS011;60113;48.762;12.302;2022-09-12T22:29:00;26.45;;;14.88;;
72209;SDS011;60113;48.762;12.302;2022-09-12T22:31:26;27.90;;;15.38;;
72209;SDS011;60113;48.762;12.302;2022-09-12T22:33:53;38.42;;;15.18;;
72209;SDS011;60113;48.762;12.302;2022-09-12T22:36:22;33.78;;;15.68;;
72209;SDS011;60113;48.762;12.302;2022-09-12T22:38:48;41.70;;;18.33;;
72209;SDS011;60113;48.762;12.302;2022-09-12T22:41:13;49.35;;;21.55;;
72209;SDS011;60113;48.762;12.302;2022-09-12T22:43:39;59.03;;;24.75;;
72209;SDS011;60113;48.762;12.302;2022-09-12T22:46:09;63.60;;;26.13;;
72209;SDS011;60113;48.762;12.302;2022-09-12T22:48:36;62.67;;;26.02;;
72209;SDS011;60113;48.762;12.302;2022-09-12T22:51:02;68.40;;;26.27;;
72209;SDS011;60113;48.762;12.302;2022-09-12T22:53:28;75.65;;;29.77;;
72209;SDS011;60113;48.762;12.302;2022-09-12T22:55:54;70.10;;;27.10;;
72209;SDS011;60113;48.762;12.302;2022-09-12T22:58:19;58.42;;;24.45;;
72209;SDS011;60113;48.762;12.302;2022-09-12T23:00:46;70.50;;;25.77;;
72209;SDS011;60113;48.762;12.302;2022-09-12T23:03:14;55.47;;;23.30;;
72209;SDS011;60113;48.762;12.302;2022-09-12T23:05:42;59.15;;;23.33;;
72209;SDS011;60113;48.762;12.302;2022-09-12T23:08:08;40.03;;;19.75;;
72209;SDS011;60113;48.762;12.302;2022-09-12T23:10:35;50.97;;;21.65;;
72209;SDS011;60113;48.762;12.302;2022-09-12T23:13:03;47.22;;;20.90;;
72209;SDS011;60113;48.762;12.302;2022-09-12T23:15:30;39.97;;;18.40;;
72209;SDS011;60113;48.762;12.302;2022-09-12T23:17:57;36.40;;;18.42;;
72209;SDS011;60113;48.762;12.302;2022-09-12T23:20:25;44.10;;;18.88;;
72209;SDS011;60113;48.762;12.302;2022-09-12T23:22:53;42.15;;;18.65;;
72209;SDS011;60113;48.762;12.302;2022-09-12T23:25:21;48.88;;;19.10;;
72209;SDS011;60113;48.762;12.302;2022-09-12T23:27:50;42.78;;;20.67;;
72209;SDS011;60113;48.762;12.302;2022-09-12T23:30:20;58.83;;;25.20;;
72209;SDS011;60113;48.762;12.302;2022-09-12T23:32:48;62.28;;;25.52;;
72209;SDS011;60113;48.762;12.302;2022-09-12T23:35:17;58.83;;;23.58;;
72209;SDS011;60113;48.762;12.302;2022-09-12T23:37:45;65.20;;;25.17;;
72209;SDS011;60113;48.762;12.302;2022-09-12T23:40:15;59.55;;;24.58;;
72209;SDS011;60113;48.762;12.302;2022-09-12T23:42:45;35.22;;;17.70;;
72209;SDS011;60113;48.762;12.302;2022-09-12T23:45:16;46.35;;;18.50;;
72209;SDS011;60113;48.762;12.302;2022-09-12T23:47:50;38.92;;;17.85;;
72209;SDS011;60113;48.762;12.302;2022-09-12T23:50:18;37.67;;;17.30;;
72209;SDS011;60113;48.762;12.302;2022-09-12T23:52:51;37.13;;;16.98;;
72209;SDS011;60113;48.762;12.302;2022-09-12T23:55:23;41.55;;;18.10;;
72209;SDS011;60113;48.762;12.302;2022-09-12T23:57:55;55.97;;;21.65;;
